Time;durP1;ratioP1;P1;durP2;ratioP2;P2;SDS_P1;SDS_P2;PMS_P1;PMS_P2;Temp;Humidity;BMP_temperature;BMP_pressure;BME280_temperature;BME280_humidity;BME280_pressure;Samples;Min_cycle;Max_cycle;Signal;HPM_P1;HPM_P2
2022/10/20 00:01:27;;;;;;;10.63;1.00;;;;;;;20.52;100.00;99401.69;7394052;19;20015;-81
2022/10/20 00:03:54;;;;;;;1.27;1.17;;;;;;;20.87;100.00;99400.97;7392084;19;20048;-82
2022/10/20 00:06:24;;;;;;;7.30;1.33;;;;;;;20.92;100.00;99396.47;7392167;19;20021;-81
2022/10/20 00:08:51;;;;;;;1.77;0.70;;;;;;;20.46;100.00;99401.06;7396183;19;20041;-82
2022/10/20 00:11:19;;;;;;;6.00;1.27;;;;;;;20.64;100.00;99400.06;7391201;19;20018;-81
2022/10/20 00:13:47;;;;;;;9.60;1.40;;;;;;;20.31;100.00;99400.97;7392667;19;20082;-81
2022/10/20 00:16:14;;;;;;;5.60;1.90;;;;;;;19.52;100.00;99375.13;7392059;19;20503;-82
2022/10/20 00:18:40;;;;;;;4.40;1.88;;;;;;;20.98;100.00;99361.00;7393158;19;20018;-82
2022/10/20 00:21:10;;;;;;;7.85;1.77;;;;;;;21.40;100.00;99360.78;7392565;19;20022;-81
2022/10/20 00:23:36;;;;;;;8.50;1.77;;;;;;;21.40;100.00;99357.94;7394733;19;20022;-83
2022/10/20 00:26:07;;;;;;;4.50;1.88;;;;;;;21.06;100.00;99372.38;7392484;19;20011;-81
2022/10/20 00:28:34;;;;;;;8.30;1.83;;;;;;;21.22;100.00;99364.72;7395383;19;20010;-82
2022/10/20 00:31:02;;;;;;;7.80;1.40;;;;;;;20.72;100.00;99372.56;7393710;19;20397;-79
2022/10/20 00:33:28;;;;;;;7.85;2.05;;;;;;;20.76;100.00;99358.06;7391128;19;20416;-79
2022/10/20 00:35:57;;;;;;;4.57;1.02;;;;;;;20.18;100.00;99347.28;7393331;19;20039;-80
2022/10/20 00:38:24;;;;;;;2.42;1.42;;;;;;;20.43;100.00;99339.94;7393381;19;20015;-79
2022/10/20 00:40:50;;;;;;;2.17;1.33;;;;;;;20.58;100.00;99334.38;7391290;19;20014;-80
2022/10/20 00:43:17;;;;;;;3.35;1.40;;;;;;;21.16;100.00;99330.16;7391430;19;20018;-79
2022/10/20 00:45:53;;;;;;;5.10;2.22;;;;;;;20.19;100.00;99338.25;7392836;19;20015;-79
2022/10/20 00:48:24;;;;;;;4.15;1.45;;;;;;;20.68;100.00;99332.53;7389871;19;20030;-80
2022/10/20 00:50:53;;;;;;;10.45;2.13;;;;;;;20.64;100.00;99337.81;7393011;19;20018;-79
2022/10/20 00:53:23;;;;;;;1.63;0.82;;;;;;;20.80;100.00;99333.75;7391579;19;20010;-79
2022/10/20 00:55:53;;;;;;;13.07;2.20;;;;;;;21.17;100.00;99323.91;7388574;19;20030;-79
2022/10/20 00:58:20;;;;;;;3.10;1.25;;;;;;;21.10;100.00;99328.22;7391694;19;20392;-80
2022/10/20 01:00:52;;;;;;;10.02;2.28;;;;;;;20.73;100.00;99311.81;7391907;19;20394;-80
2022/10/20 01:03:35;;;;;;;4.63;1.98;;;;;;;20.44;100.00;99287.72;7392011;19;20085;-79
2022/10/20 01:06:02;;;;;;;6.32;1.75;;;;;;;20.00;100.00;99303.81;7388621;19;20097;-79
2022/10/20 01:08:28;;;;;;;15.25;2.97;;;;;;;18.96;100.00;99307.84;7389766;19;20018;-79
2022/10/20 01:11:13;;;;;;;9.95;2.15;;;;;;;20.55;100.00;99298.72;7390437;19;20026;-79
2022/10/20 01:13:46;;;;;;;8.55;2.53;;;;;;;20.99;100.00;99299.47;7392109;19;20029;-79
2022/10/20 01:16:38;;;;;;;4.25;1.80;;;;;;;21.29;100.00;99307.34;7390254;19;20010;-79
2022/10/20 01:19:28;;;;;;;11.00;2.45;;;;;;;21.26;100.00;99320.53;7389559;19;20090;-80
2022/10/20 01:22:15;;;;;;;9.27;1.92;;;;;;;21.27;100.00;99313.53;7391272;19;20050;-79
2022/10/20 01:24:47;;;;;;;4.72;1.80;;;;;;;21.18;100.00;99304.84;7394614;19;20014;-79
2022/10/20 01:27:33;;;;;;;9.77;3.03;;;;;;;21.27;100.00;99295.81;7386206;19;20019;-79
2022/10/20 01:30:07;;;;;;;9.23;1.52;;;;;;;21.40;100.00;99304.13;7390752;19;20014;-79
2022/10/20 01:33:11;;;;;;;8.65;2.80;;;;;;;20.15;100.00;99298.25;7391026;19;20702;-78
2022/10/20 01:35:45;;;;;;;5.72;1.58;;;;;;;20.81;100.00;99306.94;7387527;19;20022;-79
2022/10/20 01:38:29;;;;;;;4.85;2.15;;;;;;;20.62;100.00;99300.81;7389998;19;20025;-78
2022/10/20 01:41:16;;;;;;;3.28;1.23;;;;;;;20.36;100.00;99293.31;7389851;19;20116;-78
2022/10/20 01:43:45;;;;;;;7.95;1.55;;;;;;;20.99;100.00;99300.22;7390152;19;20062;-80
2022/10/20 01:46:15;;;;;;;14.15;2.92;;;;;;;20.93;100.00;99302.47;7387879;19;20018;-80
2022/10/20 01:48:42;;;;;;;4.60;1.50;;;;;;;20.94;100.00;99286.97;7391087;19;20395;-79
2022/10/20 01:51:09;;;;;;;3.47;1.85;;;;;;;20.97;100.00;99291.53;7392108;19;20022;-79
2022/10/20 01:53:35;;;;;;;2.15;1.17;;;;;;;21.08;100.00;99294.06;7391782;19;20074;-80
2022/10/20 01:56:02;;;;;;;6.15;2.45;;;;;;;21.50;100.00;99288.09;7387622;19;20018;-80
2022/10/20 01:58:52;;;;;;;8.45;2.10;;;;;;;21.47;100.00;99280.72;7390972;19;20118;-79
2022/10/20 02:01:57;;;;;;;16.27;2.08;;;;;;;21.30;100.00;99272.78;7390200;19;20019;-79
2022/10/20 02:04:41;;;;;;;3.90;1.55;;;;;;;21.17;100.00;99269.34;7388697;19;20024;-80
2022/10/20 02:07:19;;;;;;;5.30;2.58;;;;;;;21.07;100.00;99272.72;7390224;19;20512;-79
2022/10/20 02:09:53;;;;;;;5.10;1.27;;;;;;;21.07;100.00;99255.72;7392009;19;20030;-80
2022/10/20 02:12:27;;;;;;;4.82;1.33;;;;;;;21.22;100.00;99262.75;7389486;19;20118;-80
2022/10/20 02:14:54;;;;;;;2.38;0.90;;;;;;;20.65;100.00;99257.25;7389204;19;20015;-79
2022/10/20 02:17:20;;;;;;;4.07;1.63;;;;;;;20.80;100.00;99259.38;7389627;19;20090;-79
2022/10/20 02:19:50;;;;;;;6.90;1.63;;;;;;;20.85;100.00;99262.06;7391737;19;20354;-79
2022/10/20 02:22:19;;;;;;;6.07;1.48;;;;;;;21.11;100.00;99261.03;7389491;19;20111;-79
2022/10/20 02:24:46;;;;;;;5.07;1.33;;;;;;;21.21;100.00;99264.81;7391900;19;20359;-79
2022/10/20 02:27:19;;;;;;;29.52;2.58;;;;;;;21.05;100.00;99275.34;7390711;19;20010;-79
2022/10/20 02:29:53;;;;;;;1.95;1.30;;;;;;;21.33;100.00;99259.56;7400370;19;20014;-79
2022/10/20 02:32:21;;;;;;;12.30;2.80;;;;;;;21.24;100.00;99265.78;7394530;19;20014;-79
2022/10/20 02:34:47;;;;;;;4.07;1.17;;;;;;;21.27;100.00;99251.22;7395181;19;20398;-79
2022/10/20 02:37:13;;;;;;;5.07;1.65;;;;;;;21.32;100.00;99260.88;7396631;19;20042;-80
2022/10/20 02:39:40;;;;;;;7.07;2.05;;;;;;;21.36;100.00;99252.75;7396463;19;20021;-80
2022/10/20 02:42:06;;;;;;;8.60;1.80;;;;;;;21.29;100.00;99253.53;7396640;19;20010;-79
2022/10/20 02:44:32;;;;;;;3.50;0.95;;;;;;;21.22;100.00;99248.59;7397716;19;20480;-79
2022/10/20 02:46:58;;;;;;;4.22;1.70;;;;;;;21.07;100.00;99255.72;7394471;19;20018;-80
2022/10/20 02:49:26;;;;;;;4.55;2.15;;;;;;;21.13;100.00;99255.56;7399677;19;20014;-79
2022/10/20 02:51:52;;;;;;;5.65;1.98;;;;;;;21.30;100.00;99243.69;7394358;19;20010;-79
2022/10/20 02:54:18;;;;;;;20.23;2.30;;;;;;;21.43;100.00;99240.69;7398813;19;20786;-80
2022/10/20 02:56:44;;;;;;;19.05;2.95;;;;;;;21.30;100.00;99232.34;7391724;19;20014;-78
2022/10/20 02:59:18;;;;;;;5.82;1.50;;;;;;;21.60;100.00;99232.38;7394353;19;20010;-80
2022/10/20 03:01:45;;;;;;;3.17;1.38;;;;;;;21.63;100.00;99219.91;7394136;19;20460;-79
2022/10/20 03:04:11;;;;;;;3.83;1.65;;;;;;;21.87;100.00;99217.25;7396294;19;20011;-79
2022/10/20 03:06:38;;;;;;;7.18;2.38;;;;;;;22.01;100.00;99208.53;7393199;19;20007;-79
2022/10/20 03:09:04;;;;;;;10.00;2.65;;;;;;;21.74;100.00;99219.53;7396696;19;20019;-79
2022/10/20 03:11:31;;;;;;;5.65;2.28;;;;;;;21.86;100.00;99221.44;7396052;19;20027;-80
2022/10/20 03:13:57;;;;;;;15.27;3.10;;;;;;;22.12;100.00;99214.56;7395244;19;20011;-79
2022/10/20 03:16:23;;;;;;;12.95;2.53;;;;;;;21.91;100.00;99211.22;7391985;19;20010;-79
2022/10/20 03:18:49;;;;;;;3.38;2.20;;;;;;;21.89;100.00;99213.88;7396687;19;20010;-79
2022/10/20 03:21:15;;;;;;;6.10;1.60;;;;;;;21.97;100.00;99211.75;7395246;19;20018;-79
2022/10/20 03:23:41;;;;;;;4.35;2.17;;;;;;;22.06;100.00;99216.09;7396985;19;20022;-80
2022/10/20 03:26:10;;;;;;;34.47;2.88;;;;;;;22.02;100.00;99210.81;7392980;19;20391;-79
2022/10/20 03:28:36;;;;;;;3.78;1.95;;;;;;;18.08;100.00;99217.41;7394802;19;20374;-79
2022/10/20 03:31:03;;;;;;;4.20;1.23;;;;;;;19.39;100.00;99206.50;7393003;19;20011;-79
2022/10/20 03:33:29;;;;;;;14.55;2.65;;;;;;;18.49;100.00;99211.97;7394789;19;20018;-80
2022/10/20 03:35:55;;;;;;;8.65;1.92;;;;;;;20.47;100.00;99200.97;7393073;19;20024;-80
2022/10/20 03:38:22;;;;;;;6.35;1.50;;;;;;;21.26;100.00;99198.00;7393382;19;20006;-79
2022/10/20 03:40:48;;;;;;;9.57;2.75;;;;;;;20.76;100.00;99191.84;7394009;19;20028;-80
2022/10/20 03:43:14;;;;;;;2.70;1.50;;;;;;;21.33;100.00;99192.31;7394312;19;20049;-79
2022/10/20 03:45:41;;;;;;;1.45;1.35;;;;;;;21.50;100.00;99201.03;7398368;19;20015;-79
2022/10/20 03:48:07;;;;;;;5.60;2.13;;;;;;;21.61;100.00;99192.13;7394299;19;20365;-79
2022/10/20 03:50:33;;;;;;;10.45;2.53;;;;;;;21.67;100.00;99197.59;7394116;19;20021;-79
2022/10/20 03:53:00;;;;;;;7.00;2.28;;;;;;;21.56;100.00;99186.66;7394437;19;20472;-79
2022/10/20 03:55:26;;;;;;;11.30;2.88;;;;;;;21.78;100.00;99180.97;7391871;19;20010;-80
2022/10/20 03:57:52;;;;;;;6.07;2.58;;;;;;;21.84;100.00;99183.63;7393266;19;20070;-80
2022/10/20 04:00:18;;;;;;;6.32;2.15;;;;;;;21.80;100.00;99188.91;7391286;19;20093;-80
2022/10/20 04:02:45;;;;;;;9.23;2.13;;;;;;;21.83;100.00;99177.19;7392191;19;20536;-80
2022/10/20 04:05:15;;;;;;;5.78;2.67;;;;;;;21.99;100.00;99185.66;7391992;19;20015;-79
2022/10/20 04:07:41;;;;;;;5.57;2.30;;;;;;;22.22;100.00;99181.44;7394032;19;20030;-79
2022/10/20 04:10:08;;;;;;;8.25;1.42;;;;;;;21.10;100.00;99168.91;7391592;19;20027;-79
2022/10/20 04:12:34;;;;;;;4.75;2.13;;;;;;;21.83;100.00;99159.41;7392812;19;20056;-79
2022/10/20 04:15:01;;;;;;;16.45;4.68;;;;;;;21.89;100.00;99157.16;7392420;19;20015;-79
2022/10/20 04:17:28;;;;;;;6.78;2.33;;;;;;;21.83;100.00;99165.09;7390640;19;20524;-79
2022/10/20 04:19:54;;;;;;;9.23;2.67;;;;;;;21.81;100.00;99167.72;7395768;19;20091;-78
2022/10/20 04:22:20;;;;;;;4.70;1.60;;;;;;;21.76;100.00;99160.19;7397278;19;20334;-79
2022/10/20 04:24:46;;;;;;;7.53;2.08;;;;;;;21.97;100.00;99157.13;7393229;19;20010;-79
2022/10/20 04:27:12;;;;;;;6.13;2.38;;;;;;;22.23;100.00;99146.09;7396601;19;20011;-79
2022/10/20 04:29:38;;;;;;;1.88;1.17;;;;;;;22.16;100.00;99146.84;7396931;19;20019;-79
2022/10/20 04:32:05;;;;;;;7.07;2.92;;;;;;;21.40;100.00;99139.81;7397515;19;20026;-79
2022/10/20 04:34:31;;;;;;;4.20;1.25;;;;;;;21.62;100.00;99136.19;7394062;19;20123;-79
2022/10/20 04:36:57;;;;;;;6.28;1.45;;;;;;;21.89;100.00;99137.31;7391127;19;20052;-79
2022/10/20 04:39:24;;;;;;;7.80;2.25;;;;;;;21.94;100.00;99125.00;7391604;19;20010;-79
2022/10/20 04:41:50;;;;;;;9.05;2.25;;;;;;;22.07;100.00;99121.94;7392548;19;20018;-79
2022/10/20 04:44:17;;;;;;;10.00;1.73;;;;;;;22.17;100.00;99120.00;7392227;19;20015;-79
2022/10/20 04:46:43;;;;;;;8.82;2.33;;;;;;;22.30;100.00;99104.81;7389379;19;20027;-79
2022/10/20 04:49:09;;;;;;;5.53;2.17;;;;;;;20.17;100.00;99113.91;7393312;19;20015;-79
2022/10/20 04:51:35;;;;;;;6.93;2.72;;;;;;;21.70;100.00;99122.78;7392747;19;20066;-79
2022/10/20 04:54:01;;;;;;;10.52;3.08;;;;;;;22.08;100.00;99129.13;7394754;19;20015;-79
2022/10/20 04:56:27;;;;;;;8.18;2.38;;;;;;;;;;7390739;19;20113;-79
2022/10/20 04:58:56;;;;;;;3.70;1.25;;;;;;;22.23;100.00;99122.63;7393091;19;20015;-79
2022/10/20 05:01:25;;;;;;;7.60;2.25;;;;;;;22.05;100.00;99106.81;7389438;19;20010;-79
2022/10/20 05:03:51;;;;;;;5.63;1.73;;;;;;;17.28;100.00;99108.06;7392202;19;20081;-78
2022/10/20 05:06:20;;;;;;;4.75;1.80;;;;;;;14.80;100.00;99101.66;7391998;19;20006;-79
2022/10/20 05:08:48;;;;;;;7.47;2.05;;;;;;;14.23;100.00;99106.13;7394017;19;20014;-78
2022/10/20 05:11:15;;;;;;;7.07;2.08;;;;;;;14.12;100.00;99102.63;7390921;19;20026;-78
2022/10/20 05:13:42;;;;;;;7.78;1.35;;;;;;;19.80;100.00;99083.41;7391313;19;20023;-78
2022/10/20 05:16:10;;;;;;;2.80;1.38;;;;;;;16.28;100.00;99097.69;7388055;19;20038;-79
2022/10/20 05:18:36;;;;;;;2.70;1.52;;;;;;;14.99;100.00;99094.84;7392322;19;20086;-79
2022/10/20 05:21:11;;;;;;;5.55;1.95;;;;;;;20.25;100.00;99087.19;7388905;19;20026;-78
2022/10/20 05:23:39;;;;;;;3.40;1.60;;;;;;;21.35;100.00;99084.13;7389493;19;20038;-79
2022/10/20 05:26:10;;;;;;;8.48;2.03;;;;;;;21.58;100.00;99073.50;7387399;19;20019;-79
2022/10/20 05:28:37;;;;;;;7.85;2.55;;;;;;;21.79;100.00;99068.31;7392294;19;20477;-79
2022/10/20 05:31:05;;;;;;;5.15;1.35;;;;;;;21.86;100.00;99053.41;7389756;19;20011;-79
2022/10/20 05:33:32;;;;;;;5.63;1.33;;;;;;;20.82;100.00;99053.72;7390931;19;20024;-79
2022/10/20 05:35:58;;;;;;;5.50;0.80;;;;;;;19.22;100.00;99042.41;7388873;19;21315;-79
2022/10/20 05:38:24;;;;;;;7.47;2.15;;;;;;;19.65;100.00;99042.47;7391299;19;20006;-80
2022/10/20 05:40:51;;;;;;;2.13;0.88;;;;;;;21.41;100.00;99056.34;7389811;19;20046;-80
2022/10/20 05:43:17;;;;;;;4.55;1.55;;;;;;;21.64;100.00;99071.19;7389342;19;20022;-80
2022/10/20 05:45:43;;;;;;;2.45;0.90;;;;;;;21.74;100.00;99063.63;7393360;19;20078;-80
2022/10/20 05:48:09;;;;;;;1.50;0.57;;;;;;;21.43;100.00;99059.38;7391512;19;20010;-80
2022/10/20 05:50:35;;;;;;;4.43;1.48;;;;;;;21.79;100.00;99054.16;7393926;19;20015;-80
2022/10/20 05:53:01;;;;;;;0.82;0.65;;;;;;;21.93;100.00;99058.28;7391425;19;20024;-80
2022/10/20 05:55:27;;;;;;;5.63;1.90;;;;;;;21.21;100.00;99057.31;7390195;19;20010;-81
2022/10/20 05:57:54;;;;;;;10.75;1.50;;;;;;;21.56;100.00;99059.13;7391060;19;20006;-81
2022/10/20 06:00:28;;;;;;;5.47;2.35;;;;;;;21.72;100.00;99049.28;7389164;19;20015;-81
2022/10/20 06:02:55;;;;;;;2.03;0.82;;;;;;;21.85;100.00;99040.56;7394113;19;20046;-80
2022/10/20 06:05:21;;;;;;;3.67;1.70;;;;;;;21.70;100.00;99043.44;7396619;19;20086;-80
2022/10/20 06:07:48;;;;;;;5.90;1.77;;;;;;;21.69;100.00;99033.41;7394405;19;20011;-80
2022/10/20 06:10:14;;;;;;;3.40;1.63;;;;;;;21.79;100.00;99025.81;7396929;19;20022;-81
2022/10/20 06:12:40;;;;;;;1.40;0.75;;;;;;;21.14;100.00;99019.94;7397556;19;20038;-80
2022/10/20 06:15:06;;;;;;;4.22;1.75;;;;;;;21.60;100.00;99028.34;7394584;19;20094;-81
2022/10/20 06:17:32;;;;;;;7.28;2.00;;;;;;;21.60;100.00;99031.16;7394535;19;20022;-80
2022/10/20 06:19:59;;;;;;;5.72;0.82;;;;;;;21.53;100.00;99029.09;7390641;19;20018;-80
2022/10/20 06:22:25;;;;;;;2.80;1.23;;;;;;;21.25;100.00;99037.84;7395618;19;20018;-80
2022/10/20 06:24:51;;;;;;;5.00;0.95;;;;;;;21.30;100.00;99036.91;7397738;19;20392;-80
2022/10/20 06:27:17;;;;;;;4.95;1.27;;;;;;;21.41;100.00;99022.34;7396103;19;20085;-80
2022/10/20 06:29:43;;;;;;;1.00;0.90;;;;;;;21.49;100.00;99028.75;7400470;19;20018;-80
2022/10/20 06:32:09;;;;;;;4.68;1.67;;;;;;;21.30;100.00;99017.09;7395755;19;20022;-80
2022/10/20 06:34:35;;;;;;;2.65;1.10;;;;;;;20.89;100.00;99024.69;7397322;19;20011;-80
2022/10/20 06:37:01;;;;;;;1.95;1.33;;;;;;;20.84;100.00;99028.44;7397092;19;20017;-80
2022/10/20 06:39:27;;;;;;;9.57;2.42;;;;;;;20.92;100.00;99034.13;7396864;19;20023;-80
2022/10/20 06:41:54;;;;;;;3.35;1.45;;;;;;;20.98;100.00;99037.50;7395921;19;20018;-80
2022/10/20 06:44:22;;;;;;;5.85;2.08;;;;;;;21.01;100.00;99045.59;7397042;19;20468;-80
2022/10/20 06:46:51;;;;;;;4.05;1.73;;;;;;;21.01;100.00;99045.59;7394013;19;20022;-80
2022/10/20 06:49:17;;;;;;;5.72;1.48;;;;;;;21.12;100.00;99042.41;7399808;19;20022;-80
2022/10/20 06:51:43;;;;;;;9.02;2.30;;;;;;;21.22;100.00;99028.44;7393984;19;20034;-79
2022/10/20 06:54:09;;;;;;;3.72;1.23;;;;;;;21.24;100.00;99036.38;7398796;19;20022;-80
2022/10/20 06:56:37;;;;;;;5.78;1.23;;;;;;;21.35;100.00;99036.72;7391977;19;20018;-80
2022/10/20 06:59:04;;;;;;;2.28;1.55;;;;;;;21.39;100.00;99037.09;7395468;19;20032;-80
2022/10/20 07:01:35;;;;;;;4.03;1.67;;;;;;;21.46;100.00;99039.13;7395291;19;20025;-80
2022/10/20 07:04:07;;;;;;;10.63;1.42;;;;;;;21.48;100.00;99038.59;7395250;19;20066;-80
2022/10/20 07:06:36;;;;;;;6.15;1.10;;;;;;;21.45;100.00;99039.72;7393473;19;20018;-80
2022/10/20 07:09:04;;;;;;;6.15;1.15;;;;;;;21.53;100.00;99029.09;7397478;19;20018;-79
2022/10/20 07:11:31;;;;;;;6.63;1.92;;;;;;;21.39;100.00;99030.66;7395093;19;20070;-79
2022/10/20 07:13:58;;;;;;;6.35;1.60;;;;;;;21.24;100.00;99025.03;7394563;19;20018;-80
2022/10/20 07:16:26;;;;;;;1.20;1.05;;;;;;;21.44;100.00;99021.22;7392315;19;20014;-81
2022/10/20 07:18:52;;;;;;;4.60;0.95;;;;;;;21.48;100.00;99027.25;7395886;19;20034;-82
2022/10/20 07:21:21;;;;;;;3.75;1.52;;;;;;;21.47;100.00;99020.06;7396156;19;20011;-83
2022/10/20 07:23:48;;;;;;;1.75;1.40;;;;;;;21.47;100.00;99020.06;7397736;19;20418;-82
2022/10/20 07:26:16;;;;;;;3.17;1.13;;;;;;;21.48;100.00;99021.59;7393240;19;20023;-82
2022/10/20 07:28:45;;;;;;;6.15;1.60;;;;;;;21.59;100.00;99009.84;7397211;19;20165;-83
2022/10/20 07:31:18;;;;;;;7.32;1.95;;;;;;;21.61;100.00;98998.69;7393121;19;20029;-83
2022/10/20 07:33:45;;;;;;;2.75;1.25;;;;;;;21.65;100.00;98996.22;7393429;19;20027;-84
2022/10/20 07:36:12;;;;;;;5.68;1.65;;;;;;;21.68;100.00;98995.03;7391698;19;20022;-83
2022/10/20 07:38:39;;;;;;;10.07;1.95;;;;;;;21.65;100.00;98987.69;7395506;19;20026;-83
2022/10/20 07:41:05;;;;;;;7.10;1.75;;;;;;;21.61;100.00;98973.19;7393640;19;20010;-84
2022/10/20 07:43:31;;;;;;;2.15;0.73;;;;;;;21.76;100.00;98964.59;7395839;19;20512;-83
2022/10/20 07:45:57;;;;;;;7.93;1.77;;;;;;;21.85;100.00;98964.75;7393422;19;20078;-85
2022/10/20 07:48:23;;;;;;;6.32;1.83;;;;;;;21.79;100.00;98961.38;7396556;19;20018;-85
2022/10/20 07:50:49;;;;;;;3.78;2.03;;;;;;;21.93;100.00;98956.22;7395136;19;20025;-84
2022/10/20 07:53:15;;;;;;;11.15;1.98;;;;;;;21.62;100.00;98957.66;7395169;19;20054;-84
2022/10/20 07:55:41;;;;;;;3.00;1.65;;;;;;;21.71;100.00;98955.00;7395735;19;20010;-84
2022/10/20 07:58:07;;;;;;;12.00;3.20;;;;;;;22.04;100.00;98950.09;7395943;19;20410;-85
2022/10/20 08:00:33;;;;;;;9.55;2.00;;;;;;;21.98;100.00;98946.75;7395092;19;20552;-85
2022/10/20 08:02:59;;;;;;;7.00;2.20;;;;;;;21.99;100.00;98942.56;7397357;19;20357;-84
2022/10/20 08:05:26;;;;;;;7.15;1.48;;;;;;;21.73;100.00;98943.81;7395740;19;20022;-85
2022/10/20 08:07:52;;;;;;;6.78;1.45;;;;;;;21.85;100.00;98942.06;7396913;19;20030;-84
2022/10/20 08:10:18;;;;;;;4.40;1.40;;;;;;;21.81;100.00;98938.88;7395488;19;20002;-86
2022/10/20 08:12:44;;;;;;;3.28;2.03;;;;;;;21.85;100.00;98935.69;7398555;19;20022;-84
2022/10/20 08:15:10;;;;;;;3.63;1.58;;;;;;;21.92;100.00;98940.53;7393086;19;20014;-84
2022/10/20 08:17:36;;;;;;;6.50;2.85;;;;;;;21.78;100.00;98936.44;7394622;19;20468;-84
2022/10/20 08:20:06;;;;;;;5.35;1.95;;;;;;;21.83;100.00;98933.41;7396569;19;20027;-83
2022/10/20 08:22:32;;;;;;;4.68;1.90;;;;;;;21.91;100.00;98930.53;7398650;19;20014;-85
2022/10/20 08:24:58;;;;;;;12.93;2.85;;;;;;;21.97;100.00;98936.72;7391705;19;20018;-83
2022/10/20 08:27:24;;;;;;;5.65;1.33;;;;;;;21.25;100.00;98942.31;7396993;19;20014;-84
2022/10/20 08:29:50;;;;;;;8.02;1.92;;;;;;;21.82;100.00;98939.63;7398210;19;20029;-84
2022/10/20 08:32:16;;;;;;;4.88;1.90;;;;;;;22.07;100.00;98942.53;7397956;19;20403;-84
2022/10/20 08:34:42;;;;;;;4.18;1.38;;;;;;;22.22;100.00;98946.00;7393893;19;20461;-85
2022/10/20 08:37:09;;;;;;;7.35;2.33;;;;;;;22.18;100.00;98945.66;7394749;19;20082;-84
2022/10/20 08:39:35;;;;;;;5.82;1.80;;;;;;;22.19;100.00;98940.75;7394777;19;20056;-85
2022/10/20 08:42:01;;;;;;;1.27;0.73;;;;;;;22.18;100.00;98939.97;7393469;19;20018;-85
2022/10/20 08:44:31;;;;;;;2.42;1.52;;;;;;;22.09;100.00;98937.75;7395141;19;20028;-85
2022/10/20 08:47:00;;;;;;;4.70;2.65;;;;;;;21.98;100.00;98941.06;7394510;19;20382;-85
2022/10/20 08:49:31;;;;;;;4.25;1.55;;;;;;;21.97;100.00;98941.63;7396827;19;20025;-85
2022/10/20 08:51:57;;;;;;;4.38;1.85;;;;;;;21.96;100.00;98940.88;7393994;19;20015;-85
2022/10/20 08:54:24;;;;;;;6.13;1.80;;;;;;;21.91;100.00;98939.03;7394828;19;20038;-85
2022/10/20 08:56:51;;;;;;;2.10;1.38;;;;;;;22.22;100.00;98948.84;7392789;19;20019;-85
2022/10/20 08:59:26;;;;;;;9.25;1.92;;;;;;;22.26;100.00;98937.81;7396888;19;20014;-85
2022/10/20 09:01:53;;;;;;;5.82;1.63;;;;;;;22.40;100.00;98949.66;7394628;19;20007;-85
2022/10/20 09:04:23;;;;;;;3.28;1.52;;;;;;;22.02;100.00;98937.84;7392350;19;20043;-86
2022/10/20 09:06:55;;;;;;;5.50;2.10;;;;;;;21.81;100.00;98935.25;7391566;19;20023;-90
2022/10/20 09:09:23;;;;;;;2.83;0.82;;;;;;;22.00;100.00;98941.25;7396187;19;20019;-86
2022/10/20 09:11:50;;;;;;;11.23;1.60;;;;;;;21.35;100.00;98939.66;7395455;19;20014;-87
2022/10/20 09:14:16;;;;;;;2.65;1.48;;;;;;;21.68;100.00;98932.69;7395381;19;20010;-86
2022/10/20 09:16:45;;;;;;;7.18;1.23;;;;;;;21.96;100.00;98928.81;7393890;19;20029;-87
2022/10/20 09:19:17;;;;;;;3.50;1.02;;;;;;;21.98;100.00;98931.81;7396696;19;20378;-87
2022/10/20 09:21:46;;;;;;;6.78;1.02;;;;;;;21.97;100.00;98925.38;7394454;19;20015;-87
2022/10/20 09:24:12;;;;;;;9.68;0.90;;;;;;;21.34;100.00;98927.56;7397693;19;20019;-88
2022/10/20 09:26:48;;;;;;;7.60;1.40;;;;;;;21.58;100.00;98918.41;7393579;19;20014;-91
2022/10/20 09:29:19;;;;;;;7.80;1.42;;;;;;;18.09;100.00;98915.31;7399732;19;20472;-90
2022/10/20 09:31:53;;;;;;;3.35;1.58;;;;;;;16.04;100.00;98926.44;7394631;19;20014;-90
2022/10/20 09:34:33;;;;;;;4.53;1.33;;;;;;;15.60;100.00;98920.22;7394789;19;20014;-89
2022/10/20 09:37:05;;;;;;;1.53;0.90;;;;;;;15.37;100.00;98929.44;7401126;19;20014;-89
2022/10/20 09:39:45;;;;;;;4.35;1.65;;;;;;;15.52;100.00;98924.16;7405558;19;20010;-89
2022/10/20 09:42:21;;;;;;;9.85;2.05;;;;;;;15.46;100.00;98917.88;7402979;19;20030;-90
2022/10/20 09:45:17;;;;;;;3.70;0.88;;;;;;;15.33;100.00;98910.13;7401757;19;20169;-91
2022/10/20 09:47:46;;;;;;;1.25;1.05;;;;;;;18.99;100.00;98903.22;7400680;19;20029;-91
2022/10/20 09:50:26;;;;;;;1.85;0.50;;;;;;;15.88;100.00;98897.31;7401231;19;20350;-92
2022/10/20 09:52:53;;;;;;;3.25;1.45;;;;;;;15.54;100.00;98901.94;7401949;19;20010;-93
2022/10/20 09:55:27;;;;;;;2.83;1.25;;;;;;;15.44;100.00;98893.13;7402202;19;20019;-94
2022/10/20 09:57:55;;;;;;;7.35;2.30;;;;;;;15.42;100.00;98889.34;7402822;19;20339;-93
2022/10/20 10:00:29;;;;;;;1.58;0.98;;;;;;;15.39;100.00;98879.19;7399122;19;20006;-94
2022/10/20 10:03:22;;;;;;;3.45;1.20;;;;;;;15.42;100.00;98880.94;7401349;19;20042;-94
2022/10/20 10:05:53;;;;;;;6.78;2.15;;;;;;;15.49;100.00;98871.91;7401116;19;20041;-94
2022/10/20 10:08:21;;;;;;;1.27;0.75;;;;;;;15.50;100.00;98873.44;7402980;19;20099;-93
2022/10/20 10:11:00;;;;;;;2.00;0.68;;;;;;;15.56;100.00;98872.06;7402083;19;20006;-93
2022/10/20 10:13:30;;;;;;;1.65;0.95;;;;;;;15.58;100.00;98863.09;7404590;19;20019;-92
2022/10/20 10:16:07;;;;;;;1.35;0.70;;;;;;;15.63;100.00;98865.06;7403149;19;20018;-91
2022/10/20 10:18:35;;;;;;;1.63;0.93;;;;;;;15.71;100.00;98858.28;7403536;19;20078;-91
2022/10/20 10:21:05;;;;;;;3.17;1.17;;;;;;;15.74;100.00;98853.66;7406991;19;20074;-89
2022/10/20 10:23:35;;;;;;;1.33;0.60;;;;;;;15.86;100.00;98860.59;7405087;19;20111;-90
2022/10/20 10:26:22;;;;;;;6.15;1.77;;;;;;;15.89;100.00;98849.06;7400351;19;20361;-90
2022/10/20 10:28:57;;;;;;;2.67;0.80;;;;;;;15.78;100.00;98849.25;7403862;19;20006;-90
2022/10/20 10:31:24;;;;;;;3.10;0.50;;;;;;;15.83;100.00;98853.25;7400150;19;20017;-92
2022/10/20 10:34:05;;;;;;;6.13;1.75;;;;;;;15.78;100.00;98843.63;7400069;19;20029;-91
2022/10/20 10:36:35;;;;;;;1.40;1.05;;;;;;;15.76;100.00;98845.47;7399881;19;20019;-94
2022/10/20 10:39:03;;;;;;;3.33;0.65;;;;;;;15.82;100.00;98849.69;7403984;19;20014;-93
2022/10/20 10:41:32;;;;;;;1.00;0.65;;;;;;;15.95;100.00;98846.16;7401789;19;20018;-93
2022/10/20 10:44:16;;;;;;;1.17;0.90;;;;;;;15.89;100.00;98839.88;7401731;19;20011;-92
2022/10/20 10:47:05;;;;;;;1.02;0.73;;;;;;;15.87;100.00;98845.28;7397646;19;20031;-91
2022/10/20 10:49:43;;;;;;;1.00;0.30;;;;;;;15.87;100.00;98848.09;7404042;19;20018;-93
2022/10/20 10:52:27;;;;;;;0.88;0.50;;;;;;;15.88;100.00;98846.78;7401218;19;20668;-90
2022/10/20 10:54:56;;;;;;;0.80;0.32;;;;;;;15.99;100.00;98846.59;7401229;19;20430;-89
2022/10/20 10:57:29;;;;;;;1.33;1.02;;;;;;;16.01;100.00;98843.25;7400132;19;20018;-89
2022/10/20 10:59:59;;;;;;;4.65;1.48;;;;;;;16.12;100.00;98841.00;7397053;19;20473;-89
2022/10/20 11:02:37;;;;;;;3.45;0.40;;;;;;;16.10;100.00;98832.34;7398695;19;20018;-88
2022/10/20 11:05:08;;;;;;;0.80;0.22;;;;;;;15.85;100.00;98839.44;7398250;19;20407;-90
2022/10/20 11:07:53;;;;;;;0.70;0.60;;;;;;;16.14;100.00;98832.03;7398510;19;20014;-89
2022/10/20 11:10:25;;;;;;;4.50;1.00;;;;;;;16.25;100.00;98834.63;7398391;19;20017;-88
2022/10/20 11:13:21;;;;;;;0.57;0.32;;;;;;;16.29;100.00;98835.81;7399334;19;20048;-89
2022/10/20 11:15:59;;;;;;;1.75;0.52;;;;;;;16.47;100.00;98834.22;7398055;19;20378;-89
2022/10/20 11:19:10;;;;;;;6.30;0.60;;;;;;;16.35;100.00;98839.28;7399534;19;20772;-89
2022/10/20 11:22:00;;;;;;;1.50;0.32;;;;;;;16.41;100.00;98831.53;7399154;19;20066;-89
2022/10/20 11:25:01;;;;;;;1.67;0.57;;;;;;;16.36;100.00;98838.00;7400426;19;20015;-89
2022/10/20 11:27:34;;;;;;;1.00;0.73;;;;;;;16.42;100.00;98844.25;7400158;19;20041;-87
2022/10/20 11:30:14;;;;;;;2.55;0.20;;;;;;;16.44;100.00;98832.47;7399110;19;20010;-88
2022/10/20 11:33:01;;;;;;;1.75;0.65;;;;;;;16.45;100.00;98831.19;7398559;19;20011;-90
2022/10/20 11:35:53;;;;;;;1.40;0.80;;;;;;;16.70;100.00;98831.75;7398459;19;20033;-89
2022/10/20 11:38:40;;;;;;;10.23;1.05;;;;;;;17.23;100.00;98819.06;7401192;19;20027;-90